sensor_id;sensor_type;location;lat;lon;timestamp;pressure;altitude;pressure_sealevel;temperature;humidity
28027;BME280;15344;52.342;-1.290;2023-07-13T00:02:11;99972.28;;;20.40;79.40
28027;BME280;15344;52.342;-1.290;2023-07-13T00:04:37;99976.07;;;20.15;79.43
28027;BME280;15344;52.342;-1.290;2023-07-13T00:07:02;99976.91;;;20.24;80.63
28027;BME280;15344;52.342;-1.290;2023-07-13T00:09:28;99967.02;;;18.80;88.06
28027;BME280;15344;52.342;-1.290;2023-07-13T00:11:55;99970.08;;;19.56;84.87
28027;BME280;15344;52.342;-1.290;2023-07-13T00:14:17;99973.75;;;19.63;85.04
28027;BME280;15344;52.342;-1.290;2023-07-13T00:16:42;99968.49;;;19.59;84.27
28027;BME280;15344;52.342;-1.290;2023-07-13T00:19:08;99975.84;;;20.02;83.61
28027;BME280;15344;52.342;-1.290;2023-07-13T00:21:33;99974.25;;;19.10;87.56
28027;BME280;15344;52.342;-1.290;2023-07-13T00:23:58;99972.68;;;19.23;86.22
28027;BME280;15344;52.342;-1.290;2023-07-13T00:26:23;99973.05;;;18.99;86.96
28027;BME280;15344;52.342;-1.290;2023-07-13T00:28:48;99971.16;;;19.89;82.53
28027;BME280;15344;52.342;-1.290;2023-07-13T00:31:14;99973.84;;;19.66;82.88
28027;BME280;15344;52.342;-1.290;2023-07-13T00:33:39;99973.16;;;19.28;86.03
28027;BME280;15344;52.342;-1.290;2023-07-13T00:36:04;99971.95;;;19.16;86.77
28027;BME280;15344;52.342;-1.290;2023-07-13T00:38:29;99970.74;;;19.02;86.14
28027;BME280;15344;52.342;-1.290;2023-07-13T00:40:54;99973.03;;;18.80;87.80
28027;BME280;15344;52.342;-1.290;2023-07-13T00:43:22;99972.73;;;18.90;86.66
28027;BME280;15344;52.342;-1.290;2023-07-13T00:48:11;99974.40;;;19.06;85.93
28027;BME280;15344;52.342;-1.290;2023-07-13T00:50:35;99977.82;;;19.41;84.51
28027;BME280;15344;52.342;-1.290;2023-07-13T00:53:02;99975.53;;;19.60;84.62
28027;BME280;15344;52.342;-1.290;2023-07-13T00:55:27;99976.93;;;19.23;86.58
28027;BME280;15344;52.342;-1.290;2023-07-13T00:57:52;99977.03;;;19.15;86.82
28027;BME280;15344;52.342;-1.290;2023-07-13T01:00:17;99978.28;;;19.34;87.16
28027;BME280;15344;52.342;-1.290;2023-07-13T01:02:44;99977.21;;;19.54;87.84
28027;BME280;15344;52.342;-1.290;2023-07-13T01:05:10;99972.37;;;18.34;89.35
28027;BME280;15344;52.342;-1.290;2023-07-13T01:07:33;99975.17;;;19.64;85.44
28027;BME280;15344;52.342;-1.290;2023-07-13T01:09:59;99977.09;;;19.25;87.44
28027;BME280;15344;52.342;-1.290;2023-07-13T01:12:24;99974.98;;;19.65;84.70
28027;BME280;15344;52.342;-1.290;2023-07-13T01:14:57;99976.00;;;19.69;84.74
28027;BME280;15344;52.342;-1.290;2023-07-13T01:17:15;99975.72;;;18.82;87.63
28027;BME280;15344;52.342;-1.290;2023-07-13T01:19:42;99980.45;;;19.26;87.32
28027;BME280;15344;52.342;-1.290;2023-07-13T01:22:08;99978.42;;;20.00;85.14
28027;BME280;15344;52.342;-1.290;2023-07-13T01:24:31;99978.34;;;19.07;86.72
28027;BME280;15344;52.342;-1.290;2023-07-13T01:26:56;99978.65;;;19.32;86.47
28027;BME280;15344;52.342;-1.290;2023-07-13T01:29:22;99977.26;;;19.48;86.22
28027;BME280;15344;52.342;-1.290;2023-07-13T01:31:47;99975.71;;;18.94;88.46
28027;BME280;15344;52.342;-1.290;2023-07-13T01:34:12;99976.68;;;19.35;87.13
28027;BME280;15344;52.342;-1.290;2023-07-13T01:36:37;99974.82;;;19.11;88.13
28027;BME280;15344;52.342;-1.290;2023-07-13T01:39:03;99972.49;;;19.73;87.19
28027;BME280;15344;52.342;-1.290;2023-07-13T01:41:27;99973.62;;;19.18;88.62
28027;BME280;15344;52.342;-1.290;2023-07-13T01:43:53;99971.62;;;18.75;89.91
28027;BME280;15344;52.342;-1.290;2023-07-13T01:46:18;99973.91;;;19.13;89.36
28027;BME280;15344;52.342;-1.290;2023-07-13T01:48:43;99968.07;;;19.31;89.91
28027;BME280;15344;52.342;-1.290;2023-07-13T01:51:08;99966.33;;;18.91;91.93
28027;BME280;15344;52.342;-1.290;2023-07-13T01:53:34;99970.42;;;19.42;91.06
28027;BME280;15344;52.342;-1.290;2023-07-13T01:55:59;99969.86;;;19.51;90.80
28027;BME280;15344;52.342;-1.290;2023-07-13T01:58:24;99974.04;;;19.82;87.96
28027;BME280;15344;52.342;-1.290;2023-07-13T02:00:49;99976.13;;;19.53;89.72
28027;BME280;15344;52.342;-1.290;2023-07-13T02:03:14;99973.81;;;19.09;90.20
28027;BME280;15344;52.342;-1.290;2023-07-13T02:05:40;99970.86;;;18.85;90.34
28027;BME280;15344;52.342;-1.290;2023-07-13T02:08:05;99977.49;;;19.79;87.19
28027;BME280;15344;52.342;-1.290;2023-07-13T02:10:31;99974.60;;;19.61;87.56
28027;BME280;15344;52.342;-1.290;2023-07-13T02:12:56;99969.85;;;19.14;90.66
28027;BME280;15344;52.342;-1.290;2023-07-13T02:15:21;99968.92;;;19.22;89.95
28027;BME280;15344;52.342;-1.290;2023-07-13T02:17:46;99967.05;;;19.73;89.17
28027;BME280;15344;52.342;-1.290;2023-07-13T02:20:11;99965.43;;;19.75;87.99
28027;BME280;15344;52.342;-1.290;2023-07-13T02:22:37;99967.27;;;19.71;89.19
28027;BME280;15344;52.342;-1.290;2023-07-13T02:25:02;99966.44;;;19.42;89.52
28027;BME280;15344;52.342;-1.290;2023-07-13T02:27:28;99962.93;;;19.70;89.31
28027;BME280;15344;52.342;-1.290;2023-07-13T02:29:53;99960.91;;;20.26;86.23
28027;BME280;15344;52.342;-1.290;2023-07-13T02:32:18;99963.32;;;20.12;86.95
28027;BME280;15344;52.342;-1.290;2023-07-13T02:34:43;99961.12;;;19.31;90.37
28027;BME280;15344;52.342;-1.290;2023-07-13T02:37:09;99959.81;;;19.90;88.71
28027;BME280;15344;52.342;-1.290;2023-07-13T02:39:34;99959.65;;;19.83;90.80
28027;BME280;15344;52.342;-1.290;2023-07-13T02:41:59;99959.13;;;20.09;89.88
28027;BME280;15344;52.342;-1.290;2023-07-13T02:44:24;99959.41;;;19.22;92.98
28027;BME280;15344;52.342;-1.290;2023-07-13T02:46:49;99961.59;;;19.50;92.52
28027;BME280;15344;52.342;-1.290;2023-07-13T02:49:15;99962.99;;;19.53;93.07
28027;BME280;15344;52.342;-1.290;2023-07-13T02:51:41;99957.33;;;19.42;94.17
28027;BME280;15344;52.342;-1.290;2023-07-13T02:54:06;99962.64;;;18.87;96.41
28027;BME280;15344;52.342;-1.290;2023-07-13T02:56:32;99959.44;;;19.25;95.47
28027;BME280;15344;52.342;-1.290;2023-07-13T02:58:57;99959.19;;;19.59;95.59
28027;BME280;15344;52.342;-1.290;2023-07-13T03:01:22;99962.65;;;19.01;98.42
28027;BME280;15344;52.342;-1.290;2023-07-13T03:03:47;99963.27;;;19.80;94.80
28027;BME280;15344;52.342;-1.290;2023-07-13T03:06:13;99961.51;;;18.54;97.90
28027;BME280;15344;52.342;-1.290;2023-07-13T03:08:37;99962.29;;;19.52;93.43
28027;BME280;15344;52.342;-1.290;2023-07-13T03:11:04;99958.59;;;18.92;98.92
28027;BME280;15344;52.342;-1.290;2023-07-13T03:13:27;99958.70;;;19.32;97.60
28027;BME280;15344;52.342;-1.290;2023-07-13T03:15:53;99960.92;;;18.93;98.38
28027;BME280;15344;52.342;-1.290;2023-07-13T03:18:18;99962.74;;;18.71;99.33
28027;BME280;15344;52.342;-1.290;2023-07-13T03:20:43;99965.08;;;19.55;96.00
28027;BME280;15344;52.342;-1.290;2023-07-13T03:23:08;99967.10;;;19.06;98.09
28027;BME280;15344;52.342;-1.290;2023-07-13T03:25:34;99964.86;;;18.93;96.40
28027;BME280;15344;52.342;-1.290;2023-07-13T03:27:59;99961.91;;;19.37;95.66
28027;BME280;15344;52.342;-1.290;2023-07-13T03:30:24;99959.58;;;19.67;94.85
28027;BME280;15344;52.342;-1.290;2023-07-13T03:32:49;99958.38;;;19.46;95.09
28027;BME280;15344;52.342;-1.290;2023-07-13T03:35:14;99960.87;;;19.20;93.94
28027;BME280;15344;52.342;-1.290;2023-07-13T03:37:39;99960.64;;;19.32;93.38
28027;BME280;15344;52.342;-1.290;2023-07-13T03:40:06;99961.34;;;19.78;90.73
28027;BME280;15344;52.342;-1.290;2023-07-13T03:42:30;99965.66;;;19.50;93.71
28027;BME280;15344;52.342;-1.290;2023-07-13T03:44:55;99970.28;;;18.86;94.92
28027;BME280;15344;52.342;-1.290;2023-07-13T03:47:20;99971.87;;;19.41;93.07
28027;BME280;15344;52.342;-1.290;2023-07-13T03:49:47;99970.40;;;19.04;96.79
28027;BME280;15344;52.342;-1.290;2023-07-13T03:52:11;99970.28;;;19.02;94.61
28027;BME280;15344;52.342;-1.290;2023-07-13T03:54:36;99967.50;;;19.11;95.49
28027;BME280;15344;52.342;-1.290;2023-07-13T03:57:02;99968.60;;;19.16;95.20
28027;BME280;15344;52.342;-1.290;2023-07-13T03:59:27;99968.43;;;18.92;95.34
28027;BME280;15344;52.342;-1.290;2023-07-13T04:01:52;99972.08;;;19.37;93.67
28027;BME280;15344;52.342;-1.290;2023-07-13T04:04:17;99973.34;;;18.71;94.75
28027;BME280;15344;52.342;-1.290;2023-07-13T04:06:42;99974.91;;;19.23;93.72
28027;BME280;15344;52.342;-1.290;2023-07-13T04:09:08;99973.96;;;19.01;94.39
28027;BME280;15344;52.342;-1.290;2023-07-13T04:11:34;99972.53;;;19.57;92.71
28027;BME280;15344;52.342;-1.290;2023-07-13T04:13:59;99970.83;;;19.45;92.77
28027;BME280;15344;52.342;-1.290;2023-07-13T04:16:24;99973.69;;;19.05;94.44
28027;BME280;15344;52.342;-1.290;2023-07-13T04:18:49;99973.81;;;18.86;95.95
28027;BME280;15344;52.342;-1.290;2023-07-13T04:21:14;99977.55;;;18.76;97.01
28027;BME280;15344;52.342;-1.290;2023-07-13T04:23:39;99975.90;;;19.10;95.12
28027;BME280;15344;52.342;-1.290;2023-07-13T04:26:05;99979.79;;;18.33;97.65
28027;BME280;15344;52.342;-1.290;2023-07-13T04:28:30;99982.35;;;18.56;97.63
28027;BME280;15344;52.342;-1.290;2023-07-13T04:30:55;99986.26;;;18.70;97.70
28027;BME280;15344;52.342;-1.290;2023-07-13T04:33:21;99985.45;;;17.81;100.00
28027;BME280;15344;52.342;-1.290;2023-07-13T04:35:46;99989.79;;;18.83;95.96
28027;BME280;15344;52.342;-1.290;2023-07-13T04:38:12;99991.46;;;18.55;97.53
28027;BME280;15344;52.342;-1.290;2023-07-13T04:40:37;99994.35;;;18.46;96.35
28027;BME280;15344;52.342;-1.290;2023-07-13T04:43:02;99992.50;;;18.51;97.67
28027;BME280;15344;52.342;-1.290;2023-07-13T04:45:27;99992.47;;;18.81;93.71
28027;BME280;15344;52.342;-1.290;2023-07-13T04:47:52;99996.00;;;18.78;94.92
28027;BME280;15344;52.342;-1.290;2023-07-13T04:50:18;99997.55;;;18.11;98.21
28027;BME280;15344;52.342;-1.290;2023-07-13T04:52:43;99994.63;;;18.62;96.94
28027;BME280;15344;52.342;-1.290;2023-07-13T04:55:08;99992.70;;;19.01;93.52
28027;BME280;15344;52.342;-1.290;2023-07-13T04:57:34;99997.65;;;18.58;96.85
28027;BME280;15344;52.342;-1.290;2023-07-13T04:59:59;100001.22;;;18.67;96.88
28027;BME280;15344;52.342;-1.290;2023-07-13T05:02:24;100002.71;;;18.64;97.64
28027;BME280;15344;52.342;-1.290;2023-07-13T05:04:49;100005.09;;;18.62;96.35
28027;BME280;15344;52.342;-1.290;2023-07-13T05:07:14;100009.39;;;18.54;97.70
28027;BME280;15344;52.342;-1.290;2023-07-13T05:09:40;100004.83;;;19.06;94.74
28027;BME280;15344;52.342;-1.290;2023-07-13T05:12:07;100004.47;;;19.83;93.00
28027;BME280;15344;52.342;-1.290;2023-07-13T05:14:31;100004.42;;;19.04;96.52
28027;BME280;15344;52.342;-1.290;2023-07-13T05:16:57;100002.47;;;19.22;95.91
28027;BME280;15344;52.342;-1.290;2023-07-13T05:19:23;100005.81;;;19.25;95.37
28027;BME280;15344;52.342;-1.290;2023-07-13T05:21:48;100005.33;;;19.20;94.40
28027;BME280;15344;52.342;-1.290;2023-07-13T05:24:13;100014.36;;;19.66;93.12
28027;BME280;15344;52.342;-1.290;2023-07-13T05:26:38;100015.79;;;19.16;93.68
28027;BME280;15344;52.342;-1.290;2023-07-13T05:29:03;100016.62;;;18.69;95.64
28027;BME280;15344;52.342;-1.290;2023-07-13T05:31:28;100018.98;;;19.50;92.56
28027;BME280;15344;52.342;-1.290;2023-07-13T05:33:53;100020.03;;;19.44;93.38
28027;BME280;15344;52.342;-1.290;2023-07-13T05:36:19;100024.33;;;19.06;95.62
28027;BME280;15344;52.342;-1.290;2023-07-13T05:38:44;100026.33;;;19.26;95.12
28027;BME280;15344;52.342;-1.290;2023-07-13T05:41:10;100030.00;;;19.05;97.14
28027;BME280;15344;52.342;-1.290;2023-07-13T05:43:35;100030.24;;;18.75;97.98
28027;BME280;15344;52.342;-1.290;2023-07-13T05:46:00;100030.71;;;18.91;98.38
28027;BME280;15344;52.342;-1.290;2023-07-13T05:48:25;100031.79;;;18.71;99.70
28027;BME280;15344;52.342;-1.290;2023-07-13T05:50:51;100034.13;;;19.16;97.08
28027;BME280;15344;52.342;-1.290;2023-07-13T05:53:16;100037.19;;;19.30;97.32
28027;BME280;15344;52.342;-1.290;2023-07-13T05:55:42;100038.42;;;19.11;97.94
28027;BME280;15344;52.342;-1.290;2023-07-13T05:58:06;100043.23;;;19.26;97.45
28027;BME280;15344;52.342;-1.290;2023-07-13T06:00:32;100042.25;;;19.02;96.00
28027;BME280;15344;52.342;-1.290;2023-07-13T06:02:57;100049.79;;;19.29;94.47
28027;BME280;15344;52.342;-1.290;2023-07-13T06:05:22;100051.09;;;19.55;95.31
28027;BME280;15344;52.342;-1.290;2023-07-13T06:07:47;100052.40;;;19.27;96.00
28027;BME280;15344;52.342;-1.290;2023-07-13T06:10:12;100061.98;;;19.12;95.77
28027;BME280;15344;52.342;-1.290;2023-07-13T06:12:37;100066.83;;;18.59;99.76
28027;BME280;15344;52.342;-1.290;2023-07-13T06:15:03;100065.81;;;18.93;97.95
28027;BME280;15344;52.342;-1.290;2023-07-13T06:17:28;100069.40;;;19.35;96.22
28027;BME280;15344;52.342;-1.290;2023-07-13T06:19:53;100069.01;;;18.89;96.55
28027;BME280;15344;52.342;-1.290;2023-07-13T06:22:18;100070.65;;;19.01;98.41
28027;BME280;15344;52.342;-1.290;2023-07-13T06:24:43;100073.61;;;19.67;93.73
28027;BME280;15344;52.342;-1.290;2023-07-13T06:27:08;100073.79;;;19.70;92.85
28027;BME280;15344;52.342;-1.290;2023-07-13T06:29:34;100079.64;;;20.12;90.56
28027;BME280;15344;52.342;-1.290;2023-07-13T06:31:59;100079.89;;;19.76;92.30
28027;BME280;15344;52.342;-1.290;2023-07-13T06:34:24;100081.43;;;20.09;91.21
28027;BME280;15344;52.342;-1.290;2023-07-13T06:36:49;100087.59;;;20.11;91.48
28027;BME280;15344;52.342;-1.290;2023-07-13T06:39:14;100087.72;;;20.23;92.00
28027;BME280;15344;52.342;-1.290;2023-07-13T06:41:39;100086.60;;;20.54;91.91
28027;BME280;15344;52.342;-1.290;2023-07-13T06:44:05;100083.28;;;19.83;92.10
28027;BME280;15344;52.342;-1.290;2023-07-13T06:46:30;100083.93;;;20.34;89.61
28027;BME280;15344;52.342;-1.290;2023-07-13T06:48:56;100084.52;;;21.04;86.34
28027;BME280;15344;52.342;-1.290;2023-07-13T06:51:20;100086.39;;;21.32;85.62
28027;BME280;15344;52.342;-1.290;2023-07-13T06:53:45;100087.37;;;21.08;85.52
28027;BME280;15344;52.342;-1.290;2023-07-13T06:56:10;100090.05;;;22.09;82.86
28027;BME280;15344;52.342;-1.290;2023-07-13T06:58:35;100093.16;;;22.20;79.40
28027;BME280;15344;52.342;-1.290;2023-07-13T07:01:00;100090.42;;;22.37;77.27
28027;BME280;15344;52.342;-1.290;2023-07-13T07:03:25;100094.14;;;23.00;73.52
28027;BME280;15344;52.342;-1.290;2023-07-13T07:05:50;100096.83;;;23.25;73.13
28027;BME280;15344;52.342;-1.290;2023-07-13T07:08:15;100096.15;;;24.74;66.18
28027;BME280;15344;52.342;-1.290;2023-07-13T07:10:41;100099.41;;;25.41;62.50
28027;BME280;15344;52.342;-1.290;2023-07-13T07:13:06;100098.29;;;23.87;64.49
28027;BME280;15344;52.342;-1.290;2023-07-13T07:15:33;100101.39;;;25.96;61.49
28027;BME280;15344;52.342;-1.290;2023-07-13T07:17:58;100102.56;;;25.58;57.04
28027;BME280;15344;52.342;-1.290;2023-07-13T07:20:24;100111.77;;;25.37;57.25
28027;BME280;15344;52.342;-1.290;2023-07-13T07:22:50;100112.40;;;24.77;59.27
28027;BME280;15344;52.342;-1.290;2023-07-13T07:25:16;100111.86;;;26.35;54.23
28027;BME280;15344;52.342;-1.290;2023-07-13T07:27:41;100114.67;;;25.88;55.30
28027;BME280;15344;52.342;-1.290;2023-07-13T07:30:08;100115.84;;;27.15;52.70
28027;BME280;15344;52.342;-1.290;2023-07-13T07:32:33;100113.57;;;27.59;51.35
28027;BME280;15344;52.342;-1.290;2023-07-13T07:34:59;100113.52;;;27.57;52.38
28027;BME280;15344;52.342;-1.290;2023-07-13T07:37:24;100116.47;;;27.55;54.14
28027;BME280;15344;52.342;-1.290;2023-07-13T07:39:50;100121.64;;;27.47;51.70
28027;BME280;15344;52.342;-1.290;2023-07-13T07:42:16;100124.33;;;26.90;50.41
28027;BME280;15344;52.342;-1.290;2023-07-13T07:44:41;100124.98;;;27.48;49.27
28027;BME280;15344;52.342;-1.290;2023-07-13T07:47:08;100129.38;;;27.59;49.30
28027;BME280;15344;52.342;-1.290;2023-07-13T07:49:34;100125.33;;;27.25;47.81
28027;BME280;15344;52.342;-1.290;2023-07-13T07:51:59;100128.82;;;26.82;49.33
28027;BME280;15344;52.342;-1.290;2023-07-13T07:54:24;100131.12;;;27.34;51.56
28027;BME280;15344;52.342;-1.290;2023-07-13T07:56:50;100131.76;;;26.69;52.14
28027;BME280;15344;52.342;-1.290;2023-07-13T07:59:17;100131.55;;;28.18;49.92
28027;BME280;15344;52.342;-1.290;2023-07-13T08:01:41;100137.70;;;29.04;46.47
28027;BME280;15344;52.342;-1.290;2023-07-13T08:04:08;100143.50;;;29.47;43.68
28027;BME280;15344;52.342;-1.290;2023-07-13T08:06:34;100139.40;;;30.41;42.51
28027;BME280;15344;52.342;-1.290;2023-07-13T08:08:59;100140.54;;;30.78;43.90
28027;BME280;15344;52.342;-1.290;2023-07-13T08:11:24;100142.49;;;30.09;43.18
28027;BME280;15344;52.342;-1.290;2023-07-13T08:13:50;100139.36;;;30.09;41.73
28027;BME280;15344;52.342;-1.290;2023-07-13T08:16:16;100137.90;;;30.80;42.03
28027;BME280;15344;52.342;-1.290;2023-07-13T08:18:42;100138.28;;;30.21;40.85
28027;BME280;15344;52.342;-1.290;2023-07-13T08:21:08;100142.40;;;30.94;40.85
28027;BME280;15344;52.342;-1.290;2023-07-13T08:23:33;100143.01;;;30.73;41.25
28027;BME280;15344;52.342;-1.290;2023-07-13T08:25:58;100142.75;;;32.37;37.65
28027;BME280;15344;52.342;-1.290;2023-07-13T08:28:24;100137.13;;;31.68;37.26
28027;BME280;15344;52.342;-1.290;2023-07-13T08:30:50;100138.99;;;30.91;38.91
28027;BME280;15344;52.342;-1.290;2023-07-13T08:33:15;100134.34;;;30.37;39.64
28027;BME280;15344;52.342;-1.290;2023-07-13T08:35:41;100136.09;;;30.94;39.24
28027;BME280;15344;52.342;-1.290;2023-07-13T08:38:06;100132.42;;;30.75;39.89
28027;BME280;15344;52.342;-1.290;2023-07-13T08:40:34;100130.42;;;31.72;39.21
28027;BME280;15344;52.342;-1.290;2023-07-13T08:42:59;100130.96;;;30.20;37.43
28027;BME280;15344;52.342;-1.290;2023-07-13T08:45:25;100130.13;;;30.70;38.37
28027;BME280;15344;52.342;-1.290;2023-07-13T08:47:52;100132.85;;;31.40;38.02
28027;BME280;15344;52.342;-1.290;2023-07-13T08:50:17;100135.70;;;31.15;38.61
28027;BME280;15344;52.342;-1.290;2023-07-13T08:52:42;100133.50;;;32.39;35.45
28027;BME280;15344;52.342;-1.290;2023-07-13T08:55:12;100135.87;;;32.52;36.49
28027;BME280;15344;52.342;-1.290;2023-07-13T08:57:33;100138.61;;;31.49;36.43
28027;BME280;15344;52.342;-1.290;2023-07-13T08:59:57;100136.77;;;31.29;35.48
28027;BME280;15344;52.342;-1.290;2023-07-13T09:02:27;100137.40;;;32.44;36.21
28027;BME280;15344;52.342;-1.290;2023-07-13T09:04:50;100136.78;;;30.61;36.37
28027;BME280;15344;52.342;-1.290;2023-07-13T09:07:19;100132.30;;;30.12;36.41
28027;BME280;15344;52.342;-1.290;2023-07-13T09:09:51;100133.87;;;30.05;36.27
28027;BME280;15344;52.342;-1.290;2023-07-13T09:12:11;100135.79;;;30.88;35.79
28027;BME280;15344;52.342;-1.290;2023-07-13T09:14:40;100134.74;;;29.99;36.64
28027;BME280;15344;52.342;-1.290;2023-07-13T09:16:56;100142.85;;;29.13;39.76
28027;BME280;15344;52.342;-1.290;2023-07-13T09:19:27;100137.62;;;29.43;38.85
28027;BME280;15344;52.342;-1.290;2023-07-13T09:21:47;100130.27;;;30.28;40.72
28027;BME280;15344;52.342;-1.290;2023-07-13T09:26:39;100138.03;;;29.51;37.73
28027;BME280;15344;52.342;-1.290;2023-07-13T09:29:13;100136.68;;;28.05;40.78
28027;BME280;15344;52.342;-1.290;2023-07-13T09:31:35;100138.03;;;27.80;40.12
28027;BME280;15344;52.342;-1.290;2023-07-13T09:33:56;100139.77;;;28.12;41.35
28027;BME280;15344;52.342;-1.290;2023-07-13T09:36:25;100140.05;;;27.35;42.73
28027;BME280;15344;52.342;-1.290;2023-07-13T09:38:48;100141.71;;;26.59;42.29
28027;BME280;15344;52.342;-1.290;2023-07-13T09:41:21;100138.98;;;26.88;42.90
28027;BME280;15344;52.342;-1.290;2023-07-13T09:43:39;100139.35;;;28.60;42.42
28027;BME280;15344;52.342;-1.290;2023-07-13T09:46:07;100143.04;;;28.95;40.10
28027;BME280;15344;52.342;-1.290;2023-07-13T09:48:35;100139.79;;;28.26;39.81
28027;BME280;15344;52.342;-1.290;2023-07-13T09:50:56;100142.12;;;28.35;41.11
28027;BME280;15344;52.342;-1.290;2023-07-13T09:53:22;100144.34;;;27.75;40.70
28027;BME280;15344;52.342;-1.290;2023-07-13T09:55:48;100142.98;;;27.99;39.81
28027;BME280;15344;52.342;-1.290;2023-07-13T09:58:15;100144.41;;;26.58;42.01
28027;BME280;15344;52.342;-1.290;2023-07-13T10:00:40;100146.00;;;27.59;43.82
28027;BME280;15344;52.342;-1.290;2023-07-13T10:03:09;100149.40;;;27.62;42.51
28027;BME280;15344;52.342;-1.290;2023-07-13T10:05:39;100149.92;;;27.78;42.77
28027;BME280;15344;52.342;-1.290;2023-07-13T10:07:56;100149.17;;;27.96;42.23
28027;BME280;15344;52.342;-1.290;2023-07-13T10:10:23;100148.18;;;28.67;42.10
28027;BME280;15344;52.342;-1.290;2023-07-13T10:12:48;100148.52;;;28.45;40.27
28027;BME280;15344;52.342;-1.290;2023-07-13T10:15:16;100148.01;;;27.28;40.98
28027;BME280;15344;52.342;-1.290;2023-07-13T10:17:39;100146.83;;;27.39;40.50
28027;BME280;15344;52.342;-1.290;2023-07-13T10:20:06;100146.87;;;27.21;41.60
28027;BME280;15344;52.342;-1.290;2023-07-13T10:22:37;100149.73;;;27.72;41.73
28027;BME280;15344;52.342;-1.290;2023-07-13T10:24:56;100145.78;;;27.47;43.83
28027;BME280;15344;52.342;-1.290;2023-07-13T10:27:28;100147.19;;;27.48;41.88
28027;BME280;15344;52.342;-1.290;2023-07-13T10:29:51;100148.14;;;26.77;41.33
28027;BME280;15344;52.342;-1.290;2023-07-13T10:32:14;100150.72;;;27.30;43.89
28027;BME280;15344;52.342;-1.290;2023-07-13T10:34:39;100153.46;;;27.53;44.37
28027;BME280;15344;52.342;-1.290;2023-07-13T10:37:06;100155.05;;;27.06;44.44
28027;BME280;15344;52.342;-1.290;2023-07-13T10:39:34;100154.74;;;27.42;42.31
28027;BME280;15344;52.342;-1.290;2023-07-13T10:41:59;100155.10;;;28.21;43.90
28027;BME280;15344;52.342;-1.290;2023-07-13T10:44:25;100150.83;;;27.99;41.36
28027;BME280;15344;52.342;-1.290;2023-07-13T10:46:48;100151.26;;;28.55;39.87
28027;BME280;15344;52.342;-1.290;2023-07-13T10:49:14;100152.46;;;29.41;41.05
28027;BME280;15344;52.342;-1.290;2023-07-13T10:51:40;100149.17;;;28.96;38.99
28027;BME280;15344;52.342;-1.290;2023-07-13T10:54:11;100153.96;;;28.13;38.93
28027;BME280;15344;52.342;-1.290;2023-07-13T10:56:31;100155.55;;;28.31;37.60
28027;BME280;15344;52.342;-1.290;2023-07-13T10:59:02;100150.21;;;27.58;37.92
28027;BME280;15344;52.342;-1.290;2023-07-13T11:01:24;100150.74;;;26.14;40.75
28027;BME280;15344;52.342;-1.290;2023-07-13T11:03:50;100152.95;;;27.07;41.03
28027;BME280;15344;52.342;-1.290;2023-07-13T11:06:18;100150.83;;;27.03;41.30
28027;BME280;15344;52.342;-1.290;2023-07-13T11:13:38;100159.00;;;26.85;41.73
28027;BME280;15344;52.342;-1.290;2023-07-13T11:15:57;100161.46;;;27.69;43.24
28027;BME280;15344;52.342;-1.290;2023-07-13T11:18:24;100162.78;;;27.21;46.66
28027;BME280;15344;52.342;-1.290;2023-07-13T11:20:49;100158.10;;;26.42;52.06
28027;BME280;15344;52.342;-1.290;2023-07-13T11:25:41;100155.54;;;26.30;57.28
28027;BME280;15344;52.342;-1.290;2023-07-13T11:28:15;100155.17;;;27.26;55.00
28027;BME280;15344;52.342;-1.290;2023-07-13T11:30:37;100152.66;;;26.94;58.49
28027;BME280;15344;52.342;-1.290;2023-07-13T11:33:03;100148.61;;;26.21;59.77
28027;BME280;15344;52.342;-1.290;2023-07-13T11:35:26;100150.60;;;26.40;58.73
28027;BME280;15344;52.342;-1.290;2023-07-13T11:37:49;100152.49;;;26.55;59.94
28027;BME280;15344;52.342;-1.290;2023-07-13T11:40:15;100151.10;;;27.10;59.26
28027;BME280;15344;52.342;-1.290;2023-07-13T11:42:41;100147.71;;;26.57;60.61
28027;BME280;15344;52.342;-1.290;2023-07-13T11:47:32;100147.46;;;26.79;59.90
28027;BME280;15344;52.342;-1.290;2023-07-13T11:49:58;100149.14;;;27.05;60.23
28027;BME280;15344;52.342;-1.290;2023-07-13T11:52:29;100142.90;;;26.49;60.55
28027;BME280;15344;52.342;-1.290;2023-07-13T11:54:52;100141.76;;;27.32;59.09
28027;BME280;15344;52.342;-1.290;2023-07-13T11:57:21;100144.22;;;27.50;58.94
28027;BME280;15344;52.342;-1.290;2023-07-13T11:59:42;100155.32;;;27.49;62.00
28027;BME280;15344;52.342;-1.290;2023-07-13T12:02:14;100173.00;;;25.38;64.25
28027;BME280;15344;52.342;-1.290;2023-07-13T12:04:34;100190.63;;;24.28;64.22
28027;BME280;15344;52.342;-1.290;2023-07-13T12:07:04;100188.43;;;24.93;62.55
28027;BME280;15344;52.342;-1.290;2023-07-13T12:09:27;100166.91;;;23.72;61.21
28027;BME280;15344;52.342;-1.290;2023-07-13T12:11:51;100168.51;;;24.73;64.30
28027;BME280;15344;52.342;-1.290;2023-07-13T12:14:17;100160.55;;;22.05;64.38
28027;BME280;15344;52.342;-1.290;2023-07-13T12:16:43;100161.32;;;23.22;65.46
28027;BME280;15344;52.342;-1.290;2023-07-13T12:19:16;100164.48;;;24.06;63.89
28027;BME280;15344;52.342;-1.290;2023-07-13T12:21:38;100161.47;;;23.29;66.00
28027;BME280;15344;52.342;-1.290;2023-07-13T12:24:00;100165.24;;;24.71;63.19
28027;BME280;15344;52.342;-1.290;2023-07-13T12:26:26;100163.31;;;24.27;62.70
28027;BME280;15344;52.342;-1.290;2023-07-13T12:28:53;100172.14;;;24.28;62.97
28027;BME280;15344;52.342;-1.290;2023-07-13T12:31:26;100175.87;;;24.38;61.42
28027;BME280;15344;52.342;-1.290;2023-07-13T12:33:43;100180.57;;;25.41;57.22
28027;BME280;15344;52.342;-1.290;2023-07-13T12:36:11;100180.81;;;24.19;60.19
28027;BME280;15344;52.342;-1.290;2023-07-13T12:38:35;100179.72;;;24.76;59.26
28027;BME280;15344;52.342;-1.290;2023-07-13T12:41:01;100169.33;;;24.61;61.82
28027;BME280;15344;52.342;-1.290;2023-07-13T12:43:28;100174.77;;;24.59;60.51
28027;BME280;15344;52.342;-1.290;2023-07-13T12:45:57;100173.08;;;24.41;61.29
28027;BME280;15344;52.342;-1.290;2023-07-13T12:48:17;100172.96;;;24.82;61.08